sensor_id;sensor_type;location;lat;lon;timestamp;P1;durP1;ratioP1;P2;durP2;ratioP2
21743;SDS011;11034;48.556;9.342;2022-12-18T00:01:27;98.47;;;36.25;;
21743;SDS011;11034;48.556;9.342;2022-12-18T00:03:57;97.35;;;35.22;;
21743;SDS011;11034;48.556;9.342;2022-12-18T00:06:26;95.45;;;33.75;;
21743;SDS011;11034;48.556;9.342;2022-12-18T00:08:55;74.20;;;29.10;;
21743;SDS011;11034;48.556;9.342;2022-12-18T00:11:25;75.68;;;30.17;;
21743;SDS011;11034;48.556;9.342;2022-12-18T00:13:56;73.63;;;27.52;;
21743;SDS011;11034;48.556;9.342;2022-12-18T00:16:26;71.65;;;26.55;;
21743;SDS011;11034;48.556;9.342;2022-12-18T00:18:56;74.93;;;26.60;;
21743;SDS011;11034;48.556;9.342;2022-12-18T00:21:24;89.82;;;33.28;;
21743;SDS011;11034;48.556;9.342;2022-12-18T00:23:53;64.00;;;22.45;;
21743;SDS011;11034;48.556;9.342;2022-12-18T00:26:22;58.35;;;23.10;;
21743;SDS011;11034;48.556;9.342;2022-12-18T00:28:51;60.58;;;22.55;;
21743;SDS011;11034;48.556;9.342;2022-12-18T00:31:21;66.93;;;25.63;;
21743;SDS011;11034;48.556;9.342;2022-12-18T00:33:52;66.00;;;24.98;;
21743;SDS011;11034;48.556;9.342;2022-12-18T00:36:21;68.10;;;26.20;;
21743;SDS011;11034;48.556;9.342;2022-12-18T00:38:51;62.65;;;25.33;;
21743;SDS011;11034;48.556;9.342;2022-12-18T00:41:20;66.53;;;24.90;;
21743;SDS011;11034;48.556;9.342;2022-12-18T00:44:03;69.03;;;26.42;;
21743;SDS011;11034;48.556;9.342;2022-12-18T00:46:33;64.70;;;26.15;;
21743;SDS011;11034;48.556;9.342;2022-12-18T00:49:01;65.50;;;23.50;;
21743;SDS011;11034;48.556;9.342;2022-12-18T00:51:30;60.35;;;23.23;;
21743;SDS011;11034;48.556;9.342;2022-12-18T00:53:58;64.20;;;23.60;;
21743;SDS011;11034;48.556;9.342;2022-12-18T00:56:26;63.40;;;23.63;;
21743;SDS011;11034;48.556;9.342;2022-12-18T00:58:54;57.78;;;23.45;;
21743;SDS011;11034;48.556;9.342;2022-12-18T01:01:22;58.65;;;19.80;;
21743;SDS011;11034;48.556;9.342;2022-12-18T01:03:51;64.40;;;20.55;;
21743;SDS011;11034;48.556;9.342;2022-12-18T01:06:19;55.45;;;19.45;;
21743;SDS011;11034;48.556;9.342;2022-12-18T01:08:47;54.58;;;20.95;;
21743;SDS011;11034;48.556;9.342;2022-12-18T01:11:16;56.55;;;19.98;;
21743;SDS011;11034;48.556;9.342;2022-12-18T01:13:46;57.92;;;23.02;;
21743;SDS011;11034;48.556;9.342;2022-12-18T01:16:14;76.35;;;29.55;;
21743;SDS011;11034;48.556;9.342;2022-12-18T01:18:44;82.78;;;31.33;;
21743;SDS011;11034;48.556;9.342;2022-12-18T01:21:14;87.93;;;29.58;;
21743;SDS011;11034;48.556;9.342;2022-12-18T01:23:43;76.57;;;27.33;;
21743;SDS011;11034;48.556;9.342;2022-12-18T01:26:11;81.53;;;27.80;;
21743;SDS011;11034;48.556;9.342;2022-12-18T01:28:41;64.13;;;24.13;;
21743;SDS011;11034;48.556;9.342;2022-12-18T01:31:10;54.97;;;21.70;;
21743;SDS011;11034;48.556;9.342;2022-12-18T01:33:40;52.20;;;19.67;;
21743;SDS011;11034;48.556;9.342;2022-12-18T01:36:08;64.30;;;23.45;;
21743;SDS011;11034;48.556;9.342;2022-12-18T01:38:43;62.28;;;22.08;;
21743;SDS011;11034;48.556;9.342;2022-12-18T01:41:12;63.55;;;20.88;;
21743;SDS011;11034;48.556;9.342;2022-12-18T01:43:45;71.07;;;25.23;;
21743;SDS011;11034;48.556;9.342;2022-12-18T01:46:16;60.80;;;22.77;;
21743;SDS011;11034;48.556;9.342;2022-12-18T01:48:46;71.93;;;26.65;;
21743;SDS011;11034;48.556;9.342;2022-12-18T01:51:17;73.40;;;27.23;;
21743;SDS011;11034;48.556;9.342;2022-12-18T01:53:46;71.32;;;25.75;;
21743;SDS011;11034;48.556;9.342;2022-12-18T01:56:15;54.75;;;20.50;;
21743;SDS011;11034;48.556;9.342;2022-12-18T01:58:46;61.33;;;22.25;;
21743;SDS011;11034;48.556;9.342;2022-12-18T02:01:21;49.70;;;18.83;;
21743;SDS011;11034;48.556;9.342;2022-12-18T02:03:50;57.50;;;20.73;;
21743;SDS011;11034;48.556;9.342;2022-12-18T02:06:21;54.83;;;21.17;;
21743;SDS011;11034;48.556;9.342;2022-12-18T02:09:02;57.60;;;21.77;;
21743;SDS011;11034;48.556;9.342;2022-12-18T02:11:39;57.42;;;21.60;;
21743;SDS011;11034;48.556;9.342;2022-12-18T02:14:15;57.00;;;21.23;;
21743;SDS011;11034;48.556;9.342;2022-12-18T02:16:51;59.33;;;22.83;;
21743;SDS011;11034;48.556;9.342;2022-12-18T02:19:28;50.10;;;19.92;;
21743;SDS011;11034;48.556;9.342;2022-12-18T02:22:19;60.17;;;21.95;;
21743;SDS011;11034;48.556;9.342;2022-12-18T02:24:59;65.45;;;23.65;;
21743;SDS011;11034;48.556;9.342;2022-12-18T02:27:36;58.90;;;22.50;;
21743;SDS011;11034;48.556;9.342;2022-12-18T02:30:05;59.17;;;23.33;;
21743;SDS011;11034;48.556;9.342;2022-12-18T02:32:35;58.13;;;22.25;;
21743;SDS011;11034;48.556;9.342;2022-12-18T02:35:10;67.35;;;23.38;;
21743;SDS011;11034;48.556;9.342;2022-12-18T02:37:40;55.50;;;21.63;;
21743;SDS011;11034;48.556;9.342;2022-12-18T02:40:10;60.20;;;22.70;;
21743;SDS011;11034;48.556;9.342;2022-12-18T02:42:41;60.67;;;22.80;;
21743;SDS011;11034;48.556;9.342;2022-12-18T02:45:09;67.43;;;23.48;;
21743;SDS011;11034;48.556;9.342;2022-12-18T02:47:38;62.92;;;23.10;;
21743;SDS011;11034;48.556;9.342;2022-12-18T02:50:10;72.65;;;28.95;;
21743;SDS011;11034;48.556;9.342;2022-12-18T02:52:46;70.38;;;26.05;;
21743;SDS011;11034;48.556;9.342;2022-12-18T02:55:26;76.00;;;26.15;;
21743;SDS011;11034;48.556;9.342;2022-12-18T02:58:05;66.03;;;25.45;;
21743;SDS011;11034;48.556;9.342;2022-12-18T03:00:41;76.93;;;27.05;;
21743;SDS011;11034;48.556;9.342;2022-12-18T03:03:16;63.13;;;23.08;;
21743;SDS011;11034;48.556;9.342;2022-12-18T03:05:52;64.82;;;22.92;;
21743;SDS011;11034;48.556;9.342;2022-12-18T03:08:25;58.08;;;22.13;;
21743;SDS011;11034;48.556;9.342;2022-12-18T03:10:57;56.92;;;21.10;;
21743;SDS011;11034;48.556;9.342;2022-12-18T03:13:31;56.33;;;19.88;;
21743;SDS011;11034;48.556;9.342;2022-12-18T03:16:04;61.30;;;21.15;;
21743;SDS011;11034;48.556;9.342;2022-12-18T03:18:35;64.32;;;23.63;;
21743;SDS011;11034;48.556;9.342;2022-12-18T03:21:07;72.60;;;24.48;;
21743;SDS011;11034;48.556;9.342;2022-12-18T03:23:39;73.72;;;27.10;;
21743;SDS011;11034;48.556;9.342;2022-12-18T03:26:10;66.47;;;24.77;;
21743;SDS011;11034;48.556;9.342;2022-12-18T03:28:45;65.53;;;24.27;;
21743;SDS011;11034;48.556;9.342;2022-12-18T03:31:16;66.43;;;24.70;;
21743;SDS011;11034;48.556;9.342;2022-12-18T03:33:50;63.45;;;25.13;;
21743;SDS011;11034;48.556;9.342;2022-12-18T03:36:20;64.22;;;23.88;;
21743;SDS011;11034;48.556;9.342;2022-12-18T03:38:50;65.32;;;24.25;;
21743;SDS011;11034;48.556;9.342;2022-12-18T03:41:19;56.55;;;22.67;;
21743;SDS011;11034;48.556;9.342;2022-12-18T03:43:54;66.03;;;22.25;;
21743;SDS011;11034;48.556;9.342;2022-12-18T03:46:33;57.47;;;21.05;;
21743;SDS011;11034;48.556;9.342;2022-12-18T03:49:08;62.75;;;23.77;;
21743;SDS011;11034;48.556;9.342;2022-12-18T03:51:39;50.47;;;19.33;;
21743;SDS011;11034;48.556;9.342;2022-12-18T03:54:10;51.47;;;21.05;;
21743;SDS011;11034;48.556;9.342;2022-12-18T03:56:40;65.90;;;25.45;;
21743;SDS011;11034;48.556;9.342;2022-12-18T03:59:13;70.20;;;25.25;;
21743;SDS011;11034;48.556;9.342;2022-12-18T04:01:45;62.03;;;23.83;;
21743;SDS011;11034;48.556;9.342;2022-12-18T04:04:16;67.20;;;25.48;;
21743;SDS011;11034;48.556;9.342;2022-12-18T04:06:46;69.35;;;23.80;;
21743;SDS011;11034;48.556;9.342;2022-12-18T04:09:16;64.70;;;24.45;;
21743;SDS011;11034;48.556;9.342;2022-12-18T04:11:45;61.22;;;23.13;;
21743;SDS011;11034;48.556;9.342;2022-12-18T04:14:15;64.18;;;22.67;;
21743;SDS011;11034;48.556;9.342;2022-12-18T04:16:43;67.78;;;24.48;;
21743;SDS011;11034;48.556;9.342;2022-12-18T04:19:12;73.13;;;26.50;;
21743;SDS011;11034;48.556;9.342;2022-12-18T04:21:40;71.95;;;27.08;;
21743;SDS011;11034;48.556;9.342;2022-12-18T04:24:08;67.18;;;24.88;;
21743;SDS011;11034;48.556;9.342;2022-12-18T04:26:36;72.70;;;27.00;;
21743;SDS011;11034;48.556;9.342;2022-12-18T04:29:04;66.07;;;24.92;;
21743;SDS011;11034;48.556;9.342;2022-12-18T04:31:33;68.07;;;25.95;;
21743;SDS011;11034;48.556;9.342;2022-12-18T04:34:01;70.25;;;25.95;;
21743;SDS011;11034;48.556;9.342;2022-12-18T04:36:30;65.05;;;24.52;;
21743;SDS011;11034;48.556;9.342;2022-12-18T04:38:58;66.40;;;26.10;;
21743;SDS011;11034;48.556;9.342;2022-12-18T04:41:26;69.03;;;26.10;;
21743;SDS011;11034;48.556;9.342;2022-12-18T04:43:53;65.63;;;25.30;;
21743;SDS011;11034;48.556;9.342;2022-12-18T04:46:21;74.90;;;27.92;;
21743;SDS011;11034;48.556;9.342;2022-12-18T04:48:51;71.25;;;27.70;;
21743;SDS011;11034;48.556;9.342;2022-12-18T04:51:19;69.80;;;25.67;;
21743;SDS011;11034;48.556;9.342;2022-12-18T04:53:51;68.70;;;23.63;;
21743;SDS011;11034;48.556;9.342;2022-12-18T04:56:19;60.22;;;21.55;;
21743;SDS011;11034;48.556;9.342;2022-12-18T04:58:48;67.60;;;24.63;;
21743;SDS011;11034;48.556;9.342;2022-12-18T05:01:17;74.25;;;24.95;;
21743;SDS011;11034;48.556;9.342;2022-12-18T05:03:45;66.68;;;24.10;;
21743;SDS011;11034;48.556;9.342;2022-12-18T05:06:15;69.88;;;25.13;;
21743;SDS011;11034;48.556;9.342;2022-12-18T05:08:43;64.30;;;23.35;;
21743;SDS011;11034;48.556;9.342;2022-12-18T05:11:12;67.80;;;23.55;;
21743;SDS011;11034;48.556;9.342;2022-12-18T05:13:42;62.60;;;25.02;;
21743;SDS011;11034;48.556;9.342;2022-12-18T05:16:11;65.38;;;23.42;;
21743;SDS011;11034;48.556;9.342;2022-12-18T05:18:40;60.58;;;20.52;;
21743;SDS011;11034;48.556;9.342;2022-12-18T05:21:08;66.00;;;23.80;;
21743;SDS011;11034;48.556;9.342;2022-12-18T05:23:37;73.65;;;27.23;;
21743;SDS011;11034;48.556;9.342;2022-12-18T05:26:06;70.40;;;26.40;;
21743;SDS011;11034;48.556;9.342;2022-12-18T05:28:35;66.15;;;23.95;;
21743;SDS011;11034;48.556;9.342;2022-12-18T05:31:03;51.33;;;19.85;;
21743;SDS011;11034;48.556;9.342;2022-12-18T05:33:32;64.20;;;23.52;;
21743;SDS011;11034;48.556;9.342;2022-12-18T05:36:02;67.97;;;26.55;;
21743;SDS011;11034;48.556;9.342;2022-12-18T05:38:32;64.60;;;24.75;;
21743;SDS011;11034;48.556;9.342;2022-12-18T05:41:03;50.60;;;19.27;;
21743;SDS011;11034;48.556;9.342;2022-12-18T05:43:33;68.22;;;26.02;;
21743;SDS011;11034;48.556;9.342;2022-12-18T05:46:05;65.40;;;24.95;;
21743;SDS011;11034;48.556;9.342;2022-12-18T05:48:34;68.20;;;25.77;;
21743;SDS011;11034;48.556;9.342;2022-12-18T05:51:03;66.65;;;24.63;;
21743;SDS011;11034;48.556;9.342;2022-12-18T05:53:33;69.80;;;24.58;;
21743;SDS011;11034;48.556;9.342;2022-12-18T05:56:05;67.50;;;26.73;;
21743;SDS011;11034;48.556;9.342;2022-12-18T05:58:35;60.22;;;23.67;;
21743;SDS011;11034;48.556;9.342;2022-12-18T06:01:12;68.00;;;26.10;;
21743;SDS011;11034;48.556;9.342;2022-12-18T06:03:41;60.53;;;23.90;;
21743;SDS011;11034;48.556;9.342;2022-12-18T06:06:13;58.10;;;20.30;;
21743;SDS011;11034;48.556;9.342;2022-12-18T06:08:42;62.67;;;23.33;;
21743;SDS011;11034;48.556;9.342;2022-12-18T06:11:15;63.72;;;21.58;;
21743;SDS011;11034;48.556;9.342;2022-12-18T06:13:45;67.25;;;25.20;;
21743;SDS011;11034;48.556;9.342;2022-12-18T06:16:13;60.42;;;23.75;;
21743;SDS011;11034;48.556;9.342;2022-12-18T06:18:41;64.60;;;24.92;;
21743;SDS011;11034;48.556;9.342;2022-12-18T06:21:08;60.67;;;21.88;;
21743;SDS011;11034;48.556;9.342;2022-12-18T06:23:37;67.95;;;24.63;;
21743;SDS011;11034;48.556;9.342;2022-12-18T06:26:05;72.80;;;22.98;;
21743;SDS011;11034;48.556;9.342;2022-12-18T06:28:35;62.08;;;25.73;;
21743;SDS011;11034;48.556;9.342;2022-12-18T06:31:03;65.80;;;24.45;;
21743;SDS011;11034;48.556;9.342;2022-12-18T06:33:32;63.35;;;23.15;;
21743;SDS011;11034;48.556;9.342;2022-12-18T06:36:01;61.13;;;23.75;;
21743;SDS011;11034;48.556;9.342;2022-12-18T06:38:31;60.13;;;21.90;;
21743;SDS011;11034;48.556;9.342;2022-12-18T06:40:59;63.47;;;23.90;;
21743;SDS011;11034;48.556;9.342;2022-12-18T06:43:27;55.33;;;22.15;;
21743;SDS011;11034;48.556;9.342;2022-12-18T06:45:59;60.03;;;23.17;;
21743;SDS011;11034;48.556;9.342;2022-12-18T06:48:27;54.63;;;21.20;;
21743;SDS011;11034;48.556;9.342;2022-12-18T06:50:55;60.38;;;22.35;;
21743;SDS011;11034;48.556;9.342;2022-12-18T06:53:23;59.35;;;22.60;;
21743;SDS011;11034;48.556;9.342;2022-12-18T06:55:52;66.07;;;24.27;;
21743;SDS011;11034;48.556;9.342;2022-12-18T06:58:20;58.40;;;22.48;;
21743;SDS011;11034;48.556;9.342;2022-12-18T07:00:48;64.00;;;25.08;;
21743;SDS011;11034;48.556;9.342;2022-12-18T07:03:17;58.47;;;23.02;;
21743;SDS011;11034;48.556;9.342;2022-12-18T07:05:45;62.20;;;23.77;;
21743;SDS011;11034;48.556;9.342;2022-12-18T07:08:13;61.38;;;24.42;;
21743;SDS011;11034;48.556;9.342;2022-12-18T07:10:41;63.55;;;25.55;;
21743;SDS011;11034;48.556;9.342;2022-12-18T07:13:13;71.60;;;26.17;;
21743;SDS011;11034;48.556;9.342;2022-12-18T07:15:41;72.30;;;27.58;;
21743;SDS011;11034;48.556;9.342;2022-12-18T07:18:10;62.92;;;23.42;;
21743;SDS011;11034;48.556;9.342;2022-12-18T07:20:40;60.60;;;24.25;;
21743;SDS011;11034;48.556;9.342;2022-12-18T07:23:08;69.20;;;25.13;;
21743;SDS011;11034;48.556;9.342;2022-12-18T07:25:36;64.63;;;24.98;;
21743;SDS011;11034;48.556;9.342;2022-12-18T07:28:05;74.72;;;29.05;;
21743;SDS011;11034;48.556;9.342;2022-12-18T07:30:40;67.78;;;25.30;;
21743;SDS011;11034;48.556;9.342;2022-12-18T07:33:08;70.65;;;27.23;;
21743;SDS011;11034;48.556;9.342;2022-12-18T07:35:36;63.35;;;23.00;;
21743;SDS011;11034;48.556;9.342;2022-12-18T07:38:05;69.28;;;24.70;;
21743;SDS011;11034;48.556;9.342;2022-12-18T07:40:33;60.90;;;21.55;;
21743;SDS011;11034;48.556;9.342;2022-12-18T07:43:04;49.83;;;16.77;;
21743;SDS011;11034;48.556;9.342;2022-12-18T07:45:32;70.07;;;25.08;;
21743;SDS011;11034;48.556;9.342;2022-12-18T07:48:00;59.72;;;20.70;;
21743;SDS011;11034;48.556;9.342;2022-12-18T07:50:29;61.80;;;21.83;;
21743;SDS011;11034;48.556;9.342;2022-12-18T07:52:57;52.83;;;18.73;;
21743;SDS011;11034;48.556;9.342;2022-12-18T07:55:31;59.70;;;20.27;;
21743;SDS011;11034;48.556;9.342;2022-12-18T07:58:19;61.00;;;20.23;;
21743;SDS011;11034;48.556;9.342;2022-12-18T08:00:47;56.10;;;19.58;;
21743;SDS011;11034;48.556;9.342;2022-12-18T08:03:15;58.22;;;20.42;;
21743;SDS011;11034;48.556;9.342;2022-12-18T08:05:43;60.63;;;20.33;;
21743;SDS011;11034;48.556;9.342;2022-12-18T08:08:11;74.38;;;27.50;;
21743;SDS011;11034;48.556;9.342;2022-12-18T08:10:40;58.80;;;22.60;;
21743;SDS011;11034;48.556;9.342;2022-12-18T08:13:08;52.58;;;19.10;;
21743;SDS011;11034;48.556;9.342;2022-12-18T08:15:36;53.88;;;19.88;;
21743;SDS011;11034;48.556;9.342;2022-12-18T08:18:04;46.47;;;15.18;;
21743;SDS011;11034;48.556;9.342;2022-12-18T08:20:39;54.28;;;19.30;;
21743;SDS011;11034;48.556;9.342;2022-12-18T08:23:07;50.58;;;18.45;;
21743;SDS011;11034;48.556;9.342;2022-12-18T08:25:35;44.13;;;18.00;;
21743;SDS011;11034;48.556;9.342;2022-12-18T08:28:04;55.22;;;16.88;;
21743;SDS011;11034;48.556;9.342;2022-12-18T08:30:32;50.55;;;18.02;;
21743;SDS011;11034;48.556;9.342;2022-12-18T08:33:00;47.75;;;17.58;;
21743;SDS011;11034;48.556;9.342;2022-12-18T08:35:29;53.08;;;18.25;;
21743;SDS011;11034;48.556;9.342;2022-12-18T08:38:04;37.08;;;12.95;;
21743;SDS011;11034;48.556;9.342;2022-12-18T08:40:31;53.85;;;18.80;;
21743;SDS011;11034;48.556;9.342;2022-12-18T08:42:59;50.22;;;15.80;;
21743;SDS011;11034;48.556;9.342;2022-12-18T08:45:46;54.55;;;19.33;;
21743;SDS011;11034;48.556;9.342;2022-12-18T08:48:14;48.20;;;16.35;;
21743;SDS011;11034;48.556;9.342;2022-12-18T08:50:53;43.33;;;14.20;;
21743;SDS011;11034;48.556;9.342;2022-12-18T08:53:21;55.88;;;17.55;;
21743;SDS011;11034;48.556;9.342;2022-12-18T08:55:50;46.40;;;14.82;;
21743;SDS011;11034;48.556;9.342;2022-12-18T08:58:18;52.60;;;17.20;;
21743;SDS011;11034;48.556;9.342;2022-12-18T09:00:47;56.55;;;19.65;;
21743;SDS011;11034;48.556;9.342;2022-12-18T09:03:16;50.10;;;18.45;;
21743;SDS011;11034;48.556;9.342;2022-12-18T09:05:45;51.13;;;16.40;;
21743;SDS011;11034;48.556;9.342;2022-12-18T09:08:13;45.67;;;16.13;;
21743;SDS011;11034;48.556;9.342;2022-12-18T09:10:42;53.00;;;19.58;;
21743;SDS011;11034;48.556;9.342;2022-12-18T09:13:10;56.55;;;18.60;;
21743;SDS011;11034;48.556;9.342;2022-12-18T09:15:40;54.85;;;19.83;;
21743;SDS011;11034;48.556;9.342;2022-12-18T09:18:10;57.63;;;20.65;;
21743;SDS011;11034;48.556;9.342;2022-12-18T09:20:39;54.63;;;18.42;;
21743;SDS011;11034;48.556;9.342;2022-12-18T09:23:07;53.78;;;18.95;;
21743;SDS011;11034;48.556;9.342;2022-12-18T09:25:35;51.88;;;18.50;;
21743;SDS011;11034;48.556;9.342;2022-12-18T09:28:05;56.25;;;20.10;;
21743;SDS011;11034;48.556;9.342;2022-12-18T09:30:36;46.80;;;16.25;;
21743;SDS011;11034;48.556;9.342;2022-12-18T09:33:05;52.60;;;18.02;;
21743;SDS011;11034;48.556;9.342;2022-12-18T09:35:36;57.40;;;20.95;;
21743;SDS011;11034;48.556;9.342;2022-12-18T09:38:05;54.13;;;19.38;;
21743;SDS011;11034;48.556;9.342;2022-12-18T09:40:35;53.58;;;19.38;;
21743;SDS011;11034;48.556;9.342;2022-12-18T09:43:07;56.45;;;20.80;;
21743;SDS011;11034;48.556;9.342;2022-12-18T09:45:43;50.45;;;17.65;;
21743;SDS011;11034;48.556;9.342;2022-12-18T09:48:15;66.35;;;23.35;;
21743;SDS011;11034;48.556;9.342;2022-12-18T09:50:50;55.05;;;19.73;;
21743;SDS011;11034;48.556;9.342;2022-12-18T09:53:24;50.65;;;19.05;;
21743;SDS011;11034;48.556;9.342;2022-12-18T09:55:55;59.13;;;20.38;;
21743;SDS011;11034;48.556;9.342;2022-12-18T09:58:26;50.58;;;17.00;;
21743;SDS011;11034;48.556;9.342;2022-12-18T10:00:58;52.60;;;18.02;;
21743;SDS011;11034;48.556;9.342;2022-12-18T10:03:26;50.22;;;18.90;;
21743;SDS011;11034;48.556;9.342;2022-12-18T10:05:58;53.90;;;19.85;;
21743;SDS011;11034;48.556;9.342;2022-12-18T10:08:34;48.72;;;18.85;;
21743;SDS011;11034;48.556;9.342;2022-12-18T10:11:30;55.55;;;20.33;;
21743;SDS011;11034;48.556;9.342;2022-12-18T10:14:08;54.25;;;19.23;;
21743;SDS011;11034;48.556;9.342;2022-12-18T10:16:44;50.20;;;18.45;;
21743;SDS011;11034;48.556;9.342;2022-12-18T10:19:25;46.80;;;17.83;;
21743;SDS011;11034;48.556;9.342;2022-12-18T10:22:08;49.30;;;16.92;;
21743;SDS011;11034;48.556;9.342;2022-12-18T10:24:42;45.38;;;17.33;;
21743;SDS011;11034;48.556;9.342;2022-12-18T10:27:17;47.47;;;17.63;;
21743;SDS011;11034;48.556;9.342;2022-12-18T10:29:49;40.42;;;16.35;;
21743;SDS011;11034;48.556;9.342;2022-12-18T10:32:18;47.63;;;17.45;;
21743;SDS011;11034;48.556;9.342;2022-12-18T10:34:48;44.33;;;18.00;;
21743;SDS011;11034;48.556;9.342;2022-12-18T10:37:27;46.22;;;16.48;;
21743;SDS011;11034;48.556;9.342;2022-12-18T10:40:08;49.33;;;17.55;;
21743;SDS011;11034;48.556;9.342;2022-12-18T10:42:47;45.35;;;17.80;;
21743;SDS011;11034;48.556;9.342;2022-12-18T10:45:32;52.20;;;19.90;;
21743;SDS011;11034;48.556;9.342;2022-12-18T10:48:01;56.72;;;22.17;;
21743;SDS011;11034;48.556;9.342;2022-12-18T10:50:32;56.08;;;21.75;;
21743;SDS011;11034;48.556;9.342;2022-12-18T10:53:24;46.15;;;18.02;;
21743;SDS011;11034;48.556;9.342;2022-12-18T10:55:54;49.70;;;18.55;;
21743;SDS011;11034;48.556;9.342;2022-12-18T10:58:29;45.83;;;18.40;;
21743;SDS011;11034;48.556;9.342;2022-12-18T11:01:03;48.22;;;17.88;;
21743;SDS011;11034;48.556;9.342;2022-12-18T11:03:34;51.88;;;18.35;;
21743;SDS011;11034;48.556;9.342;2022-12-18T11:06:06;45.53;;;17.90;;
21743;SDS011;11034;48.556;9.342;2022-12-18T11:08:38;49.65;;;18.63;;
21743;SDS011;11034;48.556;9.342;2022-12-18T11:11:07;49.55;;;19.88;;
21743;SDS011;11034;48.556;9.342;2022-12-18T11:13:49;47.33;;;18.80;;
21743;SDS011;11034;48.556;9.342;2022-12-18T11:16:25;50.42;;;18.90;;
21743;SDS011;11034;48.556;9.342;2022-12-18T11:18:55;49.05;;;18.42;;
21743;SDS011;11034;48.556;9.342;2022-12-18T11:21:38;58.08;;;24.92;;
21743;SDS011;11034;48.556;9.342;2022-12-18T11:24:10;64.75;;;29.65;;
21743;SDS011;11034;48.556;9.342;2022-12-18T11:26:47;65.90;;;29.10;;
21743;SDS011;11034;48.556;9.342;2022-12-18T11:29:27;58.92;;;27.00;;
21743;SDS011;11034;48.556;9.342;2022-12-18T11:35:03;74.47;;;31.67;;
21743;SDS011;11034;48.556;9.342;2022-12-18T11:37:39;67.28;;;31.42;;
21743;SDS011;11034;48.556;9.342;2022-12-18T11:40:11;70.22;;;31.98;;
21743;SDS011;11034;48.556;9.342;2022-12-18T11:42:45;73.95;;;32.65;;
21743;SDS011;11034;48.556;9.342;2022-12-18T11:45:20;70.28;;;30.98;;
21743;SDS011;11034;48.556;9.342;2022-12-18T11:47:55;73.68;;;32.30;;
21743;SDS011;11034;48.556;9.342;2022-12-18T11:50:26;77.05;;;32.00;;
21743;SDS011;11034;48.556;9.342;2022-12-18T11:53:00;71.55;;;33.25;;
21743;SDS011;11034;48.556;9.342;2022-12-18T11:55:36;68.80;;;33.00;;
21743;SDS011;11034;48.556;9.342;2022-12-18T11:58:11;76.68;;;34.08;;
21743;SDS011;11034;48.556;9.342;2022-12-18T12:00:47;87.38;;;39.42;;
21743;SDS011;11034;48.556;9.342;2022-12-18T12:03:27;80.30;;;37.33;;
21743;SDS011;11034;48.556;9.342;2022-12-18T12:06:20;86.60;;;38.72;;
21743;SDS011;11034;48.556;9.342;2022-12-18T12:08:58;75.95;;;36.08;;
21743;SDS011;11034;48.556;9.342;2022-12-18T12:11:35;81.45;;;36.88;;
21743;SDS011;11034;48.556;9.342;2022-12-18T12:14:13;81.75;;;36.95;;
21743;SDS011;11034;48.556;9.342;2022-12-18T12:16:50;75.75;;;35.03;;
21743;SDS011;11034;48.556;9.342;2022-12-18T12:19:28;90.60;;;43.65;;
21743;SDS011;11034;48.556;9.342;2022-12-18T12:22:04;81.10;;;37.67;;
21743;SDS011;11034;48.556;9.342;2022-12-18T12:24:43;81.25;;;39.60;;
21743;SDS011;11034;48.556;9.342;2022-12-18T12:27:21;72.68;;;35.08;;
21743;SDS011;11034;48.556;9.342;2022-12-18T12:30:00;79.47;;;37.33;;
21743;SDS011;11034;48.556;9.342;2022-12-18T12:32:47;77.65;;;36.03;;
21743;SDS011;11034;48.556;9.342;2022-12-18T12:35:29;75.75;;;34.15;;
21743;SDS011;11034;48.556;9.342;2022-12-18T12:38:06;73.53;;;32.85;;
21743;SDS011;11034;48.556;9.342;2022-12-18T12:40:39;78.47;;;37.22;;
21743;SDS011;11034;48.556;9.342;2022-12-18T12:46:17;83.15;;;37.00;;
21743;SDS011;11034;48.556;9.342;2022-12-18T12:48:49;83.95;;;39.90;;
21743;SDS011;11034;48.556;9.342;2022-12-18T12:51:20;108.05;;;46.70;;
21743;SDS011;11034;48.556;9.342;2022-12-18T12:53:50;80.70;;;35.97;;
21743;SDS011;11034;48.556;9.342;2022-12-18T12:56:20;81.75;;;40.20;;
21743;SDS011;11034;48.556;9.342;2022-12-18T12:58:54;71.25;;;33.42;;
21743;SDS011;11034;48.556;9.342;2022-12-18T13:01:28;73.40;;;31.77;;
21743;SDS011;11034;48.556;9.342;2022-12-18T13:04:03;68.30;;;28.70;;
21743;SDS011;11034;48.556;9.342;2022-12-18T13:06:43;67.78;;;32.72;;
21743;SDS011;11034;48.556;9.342;2022-12-18T13:09:15;77.22;;;33.42;;
21743;SDS011;11034;48.556;9.342;2022-12-18T13:11:44;76.57;;;34.10;;
21743;SDS011;11034;48.556;9.342;2022-12-18T13:14:32;72.40;;;32.75;;
21743;SDS011;11034;48.556;9.342;2022-12-18T13:17:15;73.68;;;31.75;;
21743;SDS011;11034;48.556;9.342;2022-12-18T13:20:07;80.22;;;36.03;;
21743;SDS011;11034;48.556;9.342;2022-12-18T13:22:40;81.78;;;36.70;;
21743;SDS011;11034;48.556;9.342;2022-12-18T13:25:31;68.35;;;31.08;;
21743;SDS011;11034;48.556;9.342;2022-12-18T13:28:04;63.45;;;25.83;;
21743;SDS011;11034;48.556;9.342;2022-12-18T13:30:52;56.38;;;24.25;;
21743;SDS011;11034;48.556;9.342;2022-12-18T13:33:42;64.57;;;27.08;;
21743;SDS011;11034;48.556;9.342;2022-12-18T13:36:33;68.72;;;29.52;;
21743;SDS011;11034;48.556;9.342;2022-12-18T13:39:09;65.88;;;30.58;;
21743;SDS011;11034;48.556;9.342;2022-12-18T13:45:35;69.78;;;29.48;;
21743;SDS011;11034;48.556;9.342;2022-12-18T13:48:21;93.95;;;42.55;;
21743;SDS011;11034;48.556;9.342;2022-12-18T13:53:38;55.22;;;23.55;;
21743;SDS011;11034;48.556;9.342;2022-12-18T13:56:15;47.88;;;19.38;;
21743;SDS011;11034;48.556;9.342;2022-12-18T13:58:43;52.28;;;20.42;;
21743;SDS011;11034;48.556;9.342;2022-12-18T14:01:21;50.70;;;20.58;;
21743;SDS011;11034;48.556;9.342;2022-12-18T14:03:52;49.22;;;19.92;;
21743;SDS011;11034;48.556;9.342;2022-12-18T14:06:36;51.58;;;20.50;;
21743;SDS011;11034;48.556;9.342;2022-12-18T14:09:05;52.05;;;21.55;;
21743;SDS011;11034;48.556;9.342;2022-12-18T14:11:34;51.10;;;21.30;;
21743;SDS011;11034;48.556;9.342;2022-12-18T14:14:05;51.63;;;21.35;;
21743;SDS011;11034;48.556;9.342;2022-12-18T14:16:34;58.13;;;27.92;;
21743;SDS011;11034;48.556;9.342;2022-12-18T14:19:03;86.90;;;39.83;;
21743;SDS011;11034;48.556;9.342;2022-12-18T14:21:40;81.22;;;37.72;;
21743;SDS011;11034;48.556;9.342;2022-12-18T14:24:14;79.25;;;32.20;;
21743;SDS011;11034;48.556;9.342;2022-12-18T14:26:45;61.80;;;25.02;;
21743;SDS011;11034;48.556;9.342;2022-12-18T14:29:22;159.82;;;58.80;;
21743;SDS011;11034;48.556;9.342;2022-12-18T14:32:09;206.00;;;72.82;;
21743;SDS011;11034;48.556;9.342;2022-12-18T14:34:45;71.95;;;28.95;;
21743;SDS011;11034;48.556;9.342;2022-12-18T14:37:15;77.70;;;31.50;;
21743;SDS011;11034;48.556;9.342;2022-12-18T14:39:52;55.80;;;23.50;;
21743;SDS011;11034;48.556;9.342;2022-12-18T14:42:30;42.95;;;19.17;;
21743;SDS011;11034;48.556;9.342;2022-12-18T14:45:32;42.53;;;18.08;;
21743;SDS011;11034;48.556;9.342;2022-12-18T14:48:08;41.65;;;18.55;;
21743;SDS011;11034;48.556;9.342;2022-12-18T14:50:55;40.90;;;16.85;;
21743;SDS011;11034;48.556;9.342;2022-12-18T14:56:20;37.72;;;15.27;;
21743;SDS011;11034;48.556;9.342;2022-12-18T14:58:50;39.78;;;15.40;;
21743;SDS011;11034;48.556;9.342;2022-12-18T15:01:21;45.35;;;17.60;;
21743;SDS011;11034;48.556;9.342;2022-12-18T15:03:51;45.33;;;16.55;;
21743;SDS011;11034;48.556;9.342;2022-12-18T15:06:29;42.13;;;15.95;;